Kingsford, Michigan
Current Conditions -  °F | °C
As of 11:54 PM on Saturday 20 Dec 2014 (Local Time) from KIMT Reporting Station
Haze Haze  
Wind Chill: 22°   Ceiling: 2500
Heat Index: 27°   Visibility: 6mi
Dew Point: 23°   Wind: 5mph
Humidity: 85%   Direction: 170°S
Pressure: 30.15"   Gusts: NA
Location:  45.79°N, 88.07°W
Report Text: KIMT 210554Z AUTO 17004KT 6SM BR OVC025 M03/M05 A3015 RMK AO2 SLP228 T10281050 11028 21033 410171111 56006
Loading
Personal Weather Stations






























Interactive Weather Map New forecast layout! Learn more

10-Day Weather Forecast

Advertisements
Track Severe Weather on mobile